Time;durP1;ratioP1;P1;durP2;ratioP2;P2;SDS_P1;SDS_P2;PMS_P1;PMS_P2;Temp;Humidity;BMP_temperature;BMP_pressure;BME280_temperature;BME280_humidity;BME280_pressure;Samples;Min_cycle;Max_cycle;Signal;HPM_P1;HPM_P2
2022/05/06 00:00:14;;;;;;;11.65;3.90;;;;;;;10.41;25.02;100447.59;5019155;28;20040;-78
2022/05/06 00:02:40;;;;;;;7.00;3.40;;;;;;;10.40;24.96;100463.69;5036732;28;20207;-77
2022/05/06 00:05:07;;;;;;;9.20;3.30;;;;;;;10.53;24.95;100453.66;5019168;28;20132;-78
2022/05/06 00:07:33;;;;;;;13.65;3.80;;;;;;;10.39;24.75;100446.06;5052503;28;20068;-77
2022/05/06 00:10:01;;;;;;;6.25;3.67;;;;;;;10.42;24.91;100451.13;5018020;28;20048;-77
2022/05/06 00:12:28;;;;;;;6.20;3.30;;;;;;;10.40;24.69;100453.06;5020408;28;20122;-78
2022/05/06 00:14:54;;;;;;;7.85;3.42;;;;;;;10.40;25.07;100458.38;5035145;28;20084;-78
2022/05/06 00:17:20;;;;;;;5.72;3.03;;;;;;;10.35;24.88;100461.44;5034754;28;20068;-79
2022/05/06 00:19:46;;;;;;;8.93;3.30;;;;;;;10.42;24.70;100459.94;5035040;28;20051;-78
2022/05/06 00:22:12;;;;;;;6.70;3.38;;;;;;;10.36;24.85;100462.28;5003181;28;20048;-78
2022/05/06 00:24:38;;;;;;;6.53;3.20;;;;;;;10.49;24.68;100466.34;5002350;28;20087;-79
2022/05/06 00:27:04;;;;;;;6.57;3.38;;;;;;;10.50;25.08;100468.03;5035232;28;20041;-80
2022/05/06 00:29:30;;;;;;;10.15;3.05;;;;;;;10.44;25.10;100471.22;5020595;28;20041;-79
2022/05/06 00:31:56;;;;;;;6.87;3.20;;;;;;;10.43;24.97;100461.59;5020159;28;20152;-80
2022/05/06 00:34:22;;;;;;;9.25;3.70;;;;;;;10.40;25.22;100467.19;5003251;28;20049;-78
2022/05/06 00:36:48;;;;;;;6.73;3.67;;;;;;;10.39;25.09;100468.16;5003047;28;20059;-79
2022/05/06 00:39:14;;;;;;;11.52;3.30;;;;;;;10.37;25.23;100471.91;5019233;28;20505;-80
2022/05/06 00:41:39;;;;;;;4.43;3.08;;;;;;;10.27;25.16;100461.31;5017383;28;20045;-78
2022/05/06 00:44:08;;;;;;;5.30;2.85;;;;;;;10.35;25.36;100469.41;5034354;28;20049;-78
2022/05/06 00:46:38;;;;;;;7.65;2.65;;;;;;;10.51;24.92;100469.72;5003000;28;20057;-79
2022/05/06 00:49:08;;;;;;;11.53;3.23;;;;;;;10.49;25.29;100465.50;4986785;28;20412;-80
2022/05/06 00:51:34;;;;;;;11.15;3.00;;;;;;;10.38;25.18;100465.66;5050980;28;20048;-78
2022/05/06 00:54:00;;;;;;;8.87;3.40;;;;;;;10.35;25.13;100473.91;5037281;28;20045;-78
2022/05/06 00:56:26;;;;;;;6.15;2.72;;;;;;;10.42;24.95;100475.88;5036029;28;20053;-79
2022/05/06 00:58:52;;;;;;;4.35;2.90;;;;;;;10.39;24.96;100478.78;5021513;28;20036;-79
2022/05/06 01:01:19;;;;;;;6.90;2.97;;;;;;;10.49;24.94;100478.78;5037609;28;20037;-78
2022/05/06 01:03:46;;;;;;;7.22;3.03;;;;;;;10.53;24.74;100482.88;5021982;28;20045;-76
2022/05/06 01:06:15;;;;;;;7.15;2.70;;;;;;;10.52;24.63;100476.72;5024248;28;20182;-78
2022/05/06 01:08:47;;;;;;;5.18;2.72;;;;;;;10.50;24.59;100469.88;5043804;28;20512;-78
2022/05/06 01:11:13;;;;;;;4.35;2.70;;;;;;;10.50;24.63;100451.28;5038784;28;20041;-78
2022/05/06 01:13:44;;;;;;;7.93;3.30;;;;;;;10.69;24.78;100468.06;5018666;28;20045;-77
2022/05/06 01:16:14;;;;;;;10.60;2.58;;;;;;;10.57;24.49;100470.97;5035329;28;20463;-79
2022/05/06 01:18:48;;;;;;;9.73;2.80;;;;;;;10.49;24.55;100452.22;5004035;28;20455;-78
2022/05/06 01:21:19;;;;;;;5.30;2.55;;;;;;;10.85;24.35;100468.38;5001912;28;20419;-78
2022/05/06 01:23:45;;;;;;;9.35;2.90;;;;;;;10.64;24.54;100477.44;5033453;28;20060;-79
2022/05/06 01:26:11;;;;;;;7.07;2.83;;;;;;;10.70;24.36;100477.69;5033629;28;20041;-78
2022/05/06 01:28:38;;;;;;;9.02;2.78;;;;;;;10.76;24.61;100478.97;5002480;28;20051;-80
2022/05/06 01:31:05;;;;;;;9.18;2.72;;;;;;;10.64;24.53;100480.09;5000592;28;20056;-79
2022/05/06 01:33:31;;;;;;;8.30;3.10;;;;;;;10.68;24.37;100486.81;5014659;28;20106;-78
2022/05/06 01:36:04;;;;;;;5.25;2.20;;;;;;;10.82;24.48;100495.22;4998892;28;20071;-76
2022/05/06 01:38:46;;;;;;;8.93;2.83;;;;;;;10.65;24.41;100481.75;5032339;28;20044;-77
2022/05/06 01:41:22;;;;;;;8.20;2.58;;;;;;;10.85;24.58;100480.81;5015842;28;20047;-77
2022/05/06 01:44:04;;;;;;;5.63;2.63;;;;;;;10.83;24.29;100478.28;5019146;28;20132;-77
2022/05/06 01:46:33;;;;;;;8.98;2.65;;;;;;;10.81;24.49;100488.22;5001130;28;20227;-77
2022/05/06 01:49:03;;;;;;;3.78;2.45;;;;;;;10.73;24.46;100489.88;5001374;28;20115;-78
2022/05/06 01:51:30;;;;;;;6.47;2.70;;;;;;;10.86;24.25;100493.09;5016413;28;20153;-78
2022/05/06 01:53:59;;;;;;;8.32;3.30;;;;;;;10.74;24.45;100487.09;5016218;28;20036;-78
2022/05/06 01:56:25;;;;;;;6.15;2.60;;;;;;;10.77;24.26;100496.59;5001349;28;20447;-78
2022/05/06 01:58:54;;;;;;;5.03;2.60;;;;;;;10.80;24.38;100494.50;5017863;28;20512;-80
2022/05/06 02:01:19;;;;;;;7.97;2.53;;;;;;;10.70;24.42;100488.34;5017959;28;20053;-79
2022/05/06 02:06:32;;;;;;;7.80;2.85;;;;;;;10.66;24.56;100486.09;5018429;28;20072;-79
2022/05/06 02:09:05;;;;;;;10.82;3.13;;;;;;;10.69;24.66;100485.81;4988613;28;20079;-78
2022/05/06 02:11:43;;;;;;;8.40;2.50;;;;;;;10.67;24.66;100493.09;5005319;28;20162;-77
2022/05/06 02:14:09;;;;;;;8.60;2.45;;;;;;;10.68;24.68;100495.63;4987650;28;20045;-79
2022/05/06 02:16:46;;;;;;;4.25;2.60;;;;;;;10.68;24.58;100494.78;4990081;28;20043;-79
2022/05/06 02:19:43;;;;;;;6.47;2.90;;;;;;;10.65;25.01;100497.69;5036312;28;20049;-79
2022/05/06 02:22:29;;;;;;;10.77;3.92;;;;;;;10.58;24.85;100507.22;5009664;28;20052;-79
2022/05/06 02:25:13;;;;;;;7.50;2.58;;;;;;;10.71;24.77;100497.16;5023209;28;20049;-79
2022/05/06 02:27:47;;;;;;;6.78;2.42;;;;;;;10.78;24.51;100503.59;5004025;28;20043;-78
2022/05/06 02:33:15;;;;;;;5.68;2.40;;;;;;;10.83;24.62;100518.16;5004298;28;20497;-76
2022/05/06 02:35:45;;;;;;;4.97;2.33;;;;;;;10.94;24.50;100507.38;5021291;28;20114;-76
2022/05/06 02:38:21;;;;;;;7.35;2.42;;;;;;;10.88;24.41;100480.53;5004542;28;20479;-77
2022/05/06 02:40:49;;;;;;;11.73;2.58;;;;;;;10.94;24.47;100514.50;5037404;28;20528;-78
2022/05/06 02:43:18;;;;;;;12.82;3.00;;;;;;;10.82;24.51;100483.75;5005065;28;20052;-76
2022/05/06 02:45:48;;;;;;;9.15;2.75;;;;;;;11.05;24.21;100512.56;5021629;28;20048;-75
2022/05/06 02:48:14;;;;;;;6.57;2.58;;;;;;;10.97;24.86;100514.25;5003325;28;20052;-74
2022/05/06 02:50:41;;;;;;;11.18;3.15;;;;;;;11.10;24.55;100534.25;5035305;28;20041;-74
2022/05/06 02:53:07;;;;;;;9.00;2.65;;;;;;;10.96;24.65;100524.00;5035317;28;20055;-73
2022/05/06 02:55:33;;;;;;;4.45;2.50;;;;;;;11.00;24.62;100535.22;5002294;28;20040;-75
2022/05/06 02:58:00;;;;;;;7.50;2.65;;;;;;;11.01;24.87;100531.59;5034913;28;20131;-73
2022/05/06 03:00:28;;;;;;;10.15;2.60;;;;;;;10.99;24.73;100536.22;5035502;28;20041;-73
2022/05/06 03:02:57;;;;;;;5.80;2.45;;;;;;;10.99;24.59;100526.44;5052322;28;20049;-74
2022/05/06 03:05:25;;;;;;;8.90;3.03;;;;;;;10.93;24.42;100534.13;5037253;28;20037;-78
2022/05/06 03:07:53;;;;;;;9.80;2.67;;;;;;;10.95;24.44;100514.38;5003460;28;20036;-70
2022/05/06 03:10:21;;;;;;;5.35;2.90;;;;;;;11.04;24.85;100534.00;5034700;28;20040;-70
2022/05/06 03:12:47;;;;;;;12.98;3.30;;;;;;;11.05;24.56;100528.53;4986131;28;20044;-73
2022/05/06 03:15:16;;;;;;;17.15;3.17;;;;;;;11.13;24.56;100535.81;5003195;28;20065;-75
2022/05/06 03:18:04;;;;;;;11.40;2.97;;;;;;;11.07;24.76;100533.69;5021057;28;20053;-74
2022/05/06 03:20:31;;;;;;;10.25;3.65;;;;;;;11.01;24.82;100529.75;5016973;28;20400;-74
2022/05/06 03:23:01;;;;;;;13.48;3.10;;;;;;;10.94;25.19;100528.66;5035007;28;20497;-72
2022/05/06 03:25:27;;;;;;;12.77;3.35;;;;;;;10.86;25.18;100546.25;5018528;28;20059;-73
2022/05/06 03:27:59;;;;;;;10.45;2.95;;;;;;;10.78;24.98;100517.72;4985536;28;20517;-74
2022/05/06 03:30:29;;;;;;;15.15;3.20;;;;;;;11.09;25.10;100539.69;5020496;28;20107;-75
2022/05/06 03:33:15;;;;;;;12.75;3.03;;;;;;;11.15;24.89;100539.13;5003900;28;20043;-74
2022/05/06 03:35:43;;;;;;;12.80;3.28;;;;;;;11.01;25.23;100548.38;5017862;28;20110;-74
2022/05/06 03:38:09;;;;;;;16.33;2.90;;;;;;;10.98;25.45;100540.69;5034459;28;20048;-75
2022/05/06 03:40:39;;;;;;;8.60;3.13;;;;;;;11.16;25.33;100541.66;5051838;28;20959;-75
2022/05/06 03:43:06;;;;;;;14.57;3.08;;;;;;;11.00;25.23;100514.81;5019339;28;20049;-75
2022/05/06 03:45:35;;;;;;;6.72;2.90;;;;;;;11.23;25.10;100550.78;5018273;28;20493;-75
2022/05/06 03:48:04;;;;;;;13.43;3.45;;;;;;;11.62;25.07;100559.56;5017773;28;20053;-73
2022/05/06 03:53:19;;;;;;;14.57;3.40;;;;;;;11.70;24.79;100559.75;5019239;28;20075;-74
2022/05/06 03:55:48;;;;;;;15.38;3.38;;;;;;;11.70;24.66;100525.13;5034799;28;20408;-74
2022/05/06 03:58:15;;;;;;;12.05;3.28;;;;;;;11.96;24.91;100555.47;5016970;28;20055;-74
2022/05/06 04:00:41;;;;;;;13.07;3.22;;;;;;;12.06;24.97;100553.59;5017237;28;20083;-75
2022/05/06 04:03:09;;;;;;;10.98;3.40;;;;;;;12.31;24.76;100562.75;5001551;28;20064;-76
2022/05/06 04:05:36;;;;;;;12.88;3.40;;;;;;;12.45;24.84;100563.13;5017871;28;20111;-76
2022/05/06 04:08:04;;;;;;;8.63;3.25;;;;;;;12.66;24.65;100547.72;5019345;28;20053;-75
2022/05/06 04:10:32;;;;;;;14.70;3.40;;;;;;;12.77;24.88;100560.00;5035271;28;20052;-74
2022/05/06 04:12:57;;;;;;;8.70;2.95;;;;;;;12.86;24.60;100553.78;4985864;28;20037;-75
2022/05/06 04:15:24;;;;;;;7.10;3.13;;;;;;;13.10;24.35;100559.41;5017848;28;20421;-75
2022/05/06 04:17:53;;;;;;;19.90;3.38;;;;;;;13.21;24.49;100559.16;5018244;28;20130;-74
2022/05/06 04:25:51;;;;;;;7.90;2.63;;;;;;;13.61;23.98;100551.50;5053237;28;20049;-76
2022/05/06 04:28:19;;;;;;;7.05;3.05;;;;;;;13.61;23.39;100535.47;5005023;28;20080;-71
2022/05/06 04:30:48;;;;;;;11.50;3.10;;;;;;;14.02;23.30;100552.63;5053354;28;20040;-72
2022/05/06 04:33:15;;;;;;;6.85;2.63;;;;;;;14.06;23.67;100556.66;5019530;28;20504;-71
2022/05/06 04:35:48;;;;;;;14.80;2.78;;;;;;;14.45;23.15;100557.91;5033490;28;20460;-73
2022/05/06 04:38:16;;;;;;;9.85;3.53;;;;;;;14.22;23.19;100524.69;5033277;28;20103;-73
2022/05/06 04:40:43;;;;;;;12.02;2.78;;;;;;;14.59;23.15;100565.31;5049593;28;20041;-71
2022/05/06 04:43:09;;;;;;;12.52;3.08;;;;;;;14.90;22.56;100556.56;5016776;28;20564;-71
2022/05/06 04:45:42;;;;;;;10.98;3.10;;;;;;;15.09;22.73;100553.59;5017472;28;20563;-68
2022/05/06 04:48:11;;;;;;;5.28;2.70;;;;;;;15.03;22.46;100527.50;5000485;28;20052;-72
2022/05/06 04:50:40;;;;;;;7.43;2.90;;;;;;;15.48;22.04;100567.22;5050269;28;20044;-72
2022/05/06 04:53:09;;;;;;;6.63;2.40;;;;;;;15.57;21.56;100552.84;5017107;28;20041;-72
2022/05/06 04:55:40;;;;;;;5.57;2.15;;;;;;;15.83;20.20;100556.16;5027802;28;20037;-71
2022/05/06 04:58:08;;;;;;;5.75;2.00;;;;;;;15.61;19.81;100554.16;5014349;28;20563;-72
2022/05/06 05:00:34;;;;;;;5.13;2.08;;;;;;;15.62;19.33;100549.66;5015383;28;20492;-70
2022/05/06 05:03:01;;;;;;;7.28;1.88;;;;;;;15.66;19.37;100559.84;5015245;28;20045;-72
2022/05/06 05:05:28;;;;;;;6.05;2.00;;;;;;;15.95;18.93;100546.75;5015256;28;20040;-71
2022/05/06 05:07:54;;;;;;;3.60;1.95;;;;;;;16.24;18.73;100576.50;5030906;28;20041;-70
2022/05/06 05:10:21;;;;;;;11.85;2.20;;;;;;;16.56;18.83;100568.38;5014052;28;20102;-71
2022/05/06 05:12:47;;;;;;;6.50;1.80;;;;;;;16.81;18.77;100556.56;5028117;28;20045;-73
2022/05/06 05:15:15;;;;;;;5.68;1.70;;;;;;;16.96;18.59;100574.59;5048399;28;20033;-72
2022/05/06 05:17:46;;;;;;;7.82;1.90;;;;;;;16.98;18.56;100583.28;5029079;28;20059;-71
2022/05/06 05:20:12;;;;;;;4.13;1.75;;;;;;;16.88;18.39;100554.81;5030863;28;20045;-71
2022/05/06 05:22:40;;;;;;;9.98;2.05;;;;;;;17.22;17.95;100573.22;5031149;28;20074;-71
2022/05/06 05:25:12;;;;;;;8.63;1.70;;;;;;;17.35;17.76;100580.69;5014607;28;20094;-74
2022/05/06 05:27:40;;;;;;;2.88;1.70;;;;;;;17.37;17.82;100576.84;5006404;28;20051;-73
2022/05/06 05:30:10;;;;;;;5.75;1.77;;;;;;;17.24;17.87;100554.25;5015180;28;20531;-73
2022/05/06 05:32:37;;;;;;;9.93;1.85;;;;;;;17.52;17.67;100575.06;5031591;28;20508;-73
2022/05/06 05:35:06;;;;;;;9.25;2.20;;;;;;;17.57;17.61;100570.00;5015531;28;20049;-73
2022/05/06 05:37:36;;;;;;;4.82;2.17;;;;;;;17.34;17.39;100561.09;5015079;28;20041;-72
2022/05/06 05:40:08;;;;;;;8.48;2.00;;;;;;;17.62;17.10;100582.91;4996853;28;20042;-72
2022/05/06 05:42:38;;;;;;;6.30;2.03;;;;;;;17.63;17.33;100574.66;5044508;28;20044;-72
2022/05/06 05:50:42;;;;;;;3.85;1.98;;;;;;;17.91;17.02;100574.91;5047829;28;20052;-72
2022/05/06 05:53:10;;;;;;;5.40;2.20;;;;;;;17.83;16.63;100548.97;5015038;28;20032;-71
2022/05/06 05:55:36;;;;;;;9.10;2.35;;;;;;;17.98;16.70;100573.16;5013860;28;20049;-72
2022/05/06 05:58:07;;;;;;;;;;;;;;;18.31;16.28;100580.69;5015520;28;20041;-73
2022/05/06 06:00:36;;;;;;;7.20;2.55;;;;;;;18.15;16.32;100580.88;4997799;28;20003;-73
2022/05/06 06:03:03;;;;;;;7.63;2.28;;;;;;;18.05;16.56;100574.13;5023152;28;20119;-72
2022/05/06 06:05:35;;;;;;;8.82;2.50;;;;;;;18.34;16.86;100574.13;4982181;28;20075;-72
2022/05/06 06:08:04;;;;;;;4.18;2.38;;;;;;;18.22;16.26;100564.88;5048814;28;20516;-72
2022/05/06 06:10:33;;;;;;;5.65;2.53;;;;;;;18.44;16.43;100561.25;5014822;28;20040;-72
2022/05/06 06:13:04;;;;;;;11.15;2.60;;;;;;;18.37;16.39;100574.59;4991514;28;20590;-71
2022/05/06 06:15:33;;;;;;;5.50;2.63;;;;;;;18.74;16.34;100560.22;5014340;28;20148;-72
2022/05/06 06:18:00;;;;;;;8.40;2.72;;;;;;;18.57;15.87;100577.59;4989512;28;20102;-72
2022/05/06 06:20:29;;;;;;;7.40;2.55;;;;;;;18.69;15.99;100561.78;4997104;28;20051;-72
2022/05/06 06:22:56;;;;;;;14.27;2.95;;;;;;;18.56;15.85;100523.97;4982779;28;20064;-72
2022/05/06 06:25:24;;;;;;;8.18;2.90;;;;;;;18.86;15.81;100580.25;4981909;28;20099;-72
2022/05/06 06:27:53;;;;;;;4.90;2.83;;;;;;;18.90;15.96;100551.91;5038840;28;20072;-71
2022/05/06 06:30:36;;;;;;;5.82;2.40;;;;;;;19.57;15.25;100560.53;4994541;28;20492;-71
2022/05/06 06:33:06;;;;;;;8.95;2.55;;;;;;;19.67;15.45;100537.63;5003154;28;20132;-72
2022/05/06 06:35:31;;;;;;;7.68;2.58;;;;;;;19.81;15.24;100560.13;4997635;28;20075;-73
2022/05/06 06:38:01;;;;;;;6.73;2.60;;;;;;;20.10;15.13;100571.56;4996203;28;20047;-72
2022/05/06 06:40:32;;;;;;;6.03;2.50;;;;;;;20.39;15.09;100567.00;4998617;28;20135;-73
2022/05/06 06:43:05;;;;;;;7.47;2.50;;;;;;;19.78;14.40;100542.47;4997591;28;20063;-71
2022/05/06 06:45:54;;;;;;;7.63;2.42;;;;;;;20.62;14.03;100568.38;5015972;28;20103;-70
2022/05/06 06:48:41;;;;;;;4.75;2.40;;;;;;;20.54;13.78;100565.00;4996512;28;20041;-73
2022/05/06 06:51:23;;;;;;;5.25;2.38;;;;;;;21.19;13.34;100571.53;5028719;28;20044;-73
2022/05/06 06:53:53;;;;;;;9.48;2.90;;;;;;;21.53;13.38;100575.97;4997673;28;20032;-71
2022/05/06 06:56:20;;;;;;;10.68;2.70;;;;;;;21.84;13.35;100564.59;5031651;28;20080;-73
2022/05/06 06:58:46;;;;;;;6.15;2.55;;;;;;;21.62;13.13;100563.91;5000993;28;20048;-74
2022/05/06 07:01:12;;;;;;;5.32;2.63;;;;;;;21.78;12.89;100552.75;5000089;28;20061;-74
2022/05/06 07:03:38;;;;;;;5.97;2.70;;;;;;;21.95;12.69;100543.16;4982911;28;20064;-74
2022/05/06 07:11:52;;;;;;;7.13;2.90;;;;;;;23.74;11.85;100554.72;5019485;28;20033;-74
2022/05/06 07:14:21;;;;;;;4.38;2.60;;;;;;;24.04;11.48;100553.03;5027939;28;20064;-74
2022/05/06 07:16:49;;;;;;;7.55;3.17;;;;;;;25.04;10.73;100544.38;5033414;28;20049;-73
2022/05/06 07:19:15;;;;;;;7.88;2.90;;;;;;;25.76;10.25;100550.44;5008417;28;20051;-74
2022/05/06 07:21:42;;;;;;;7.28;3.00;;;;;;;26.29;9.87;100556.63;5016905;28;20041;-73
2022/05/06 07:24:09;;;;;;;5.82;2.80;;;;;;;27.18;9.06;100528.84;4998479;28;20049;-73
2022/05/06 07:26:35;;;;;;;5.18;2.90;;;;;;;28.50;7.88;100511.66;5000457;28;20037;-73
2022/05/06 07:29:01;;;;;;;7.28;3.05;;;;;;;29.34;7.66;100529.31;4983910;28;20044;-74
2022/05/06 07:31:27;;;;;;;8.05;2.97;;;;;;;31.68;6.31;100528.16;5000465;28;20163;-74
2022/05/06 07:33:53;;;;;;;5.65;2.90;;;;;;;33.77;5.40;100515.81;4984489;28;20036;-73
2022/05/06 07:36:19;;;;;;;5.88;2.88;;;;;;;34.40;5.21;100531.22;4997804;28;20044;-74
2022/05/06 07:38:45;;;;;;;4.25;2.90;;;;;;;35.29;4.23;100530.38;5014599;28;20041;-73
2022/05/06 07:41:11;;;;;;;7.25;3.22;;;;;;;35.93;4.06;100533.25;5000210;28;20041;-73
2022/05/06 07:43:37;;;;;;;6.55;2.95;;;;;;;36.39;3.68;100524.94;4999377;28;20059;-73
2022/05/06 07:46:02;;;;;;;10.23;3.40;;;;;;;36.84;3.68;100526.81;4982168;28;20080;-74
2022/05/06 07:48:28;;;;;;;7.93;3.40;;;;;;;35.93;3.71;100505.59;5000424;28;20052;-74
2022/05/06 07:50:58;;;;;;;8.45;3.40;;;;;;;35.03;4.23;100513.34;5000362;28;20037;-74
2022/05/06 07:53:24;;;;;;;6.17;3.77;;;;;;;36.51;3.10;100534.38;5017521;28;20059;-74
2022/05/06 07:55:50;;;;;;;6.88;3.95;;;;;;;36.62;2.94;100530.28;5016060;28;20037;-74
2022/05/06 07:58:16;;;;;;;8.73;3.25;;;;;;;36.18;3.59;100518.13;5015836;28;20056;-74
2022/05/06 08:00:42;;;;;;;4.18;3.15;;;;;;;35.32;3.40;100518.72;5032903;28;20037;-76
2022/05/06 08:05:57;;;;;;;8.00;3.28;;;;;;;34.11;3.98;100516.63;5017818;28;20036;-75
2022/05/06 08:08:25;;;;;;;7.22;3.45;;;;;;;34.04;4.17;100510.63;4998616;28;20131;-75
2022/05/06 08:10:51;;;;;;;11.60;3.35;;;;;;;33.76;4.39;100520.53;4983355;28;20566;-75
2022/05/06 08:13:17;;;;;;;5.60;3.65;;;;;;;33.69;4.04;100509.00;5023443;28;20124;-76
2022/05/06 08:15:44;;;;;;;6.75;3.20;;;;;;;34.17;3.30;100504.41;4999953;28;20041;-74
2022/05/06 08:18:10;;;;;;;4.00;3.28;;;;;;;32.58;4.04;100508.81;5016141;28;20053;-75
2022/05/06 08:20:38;;;;;;;7.18;3.40;;;;;;;33.08;4.38;100506.94;4999321;28;20036;-73
2022/05/06 08:23:04;;;;;;;5.20;3.63;;;;;;;31.43;4.51;100508.13;5031799;28;20201;-71
2022/05/06 08:25:30;;;;;;;5.07;3.53;;;;;;;31.67;5.08;100499.06;5017208;28;20543;-72
2022/05/06 08:27:57;;;;;;;5.57;3.50;;;;;;;33.45;4.31;100518.28;5015443;28;20079;-72
2022/05/06 08:30:23;;;;;;;7.45;3.45;;;;;;;34.19;4.15;100504.97;4999323;28;20040;-72
2022/05/06 08:32:49;;;;;;;7.07;3.42;;;;;;;33.57;4.18;100505.78;5007481;28;20485;-71
2022/05/06 08:35:15;;;;;;;9.00;3.42;;;;;;;35.11;3.08;100504.38;4999474;28;20595;-71
2022/05/06 08:37:46;;;;;;;6.68;3.53;;;;;;;34.73;3.48;100488.06;5018455;28;20048;-74
2022/05/06 08:40:21;;;;;;;8.00;3.53;;;;;;;34.84;2.92;100495.91;5023782;28;20048;-71
2022/05/06 08:42:48;;;;;;;7.40;3.22;;;;;;;33.56;3.39;100506.06;5031625;28;20493;-72
2022/05/06 08:50:54;;;;;;;4.90;3.30;;;;;;;30.08;5.31;100465.31;5015265;28;20037;-71
2022/05/06 08:53:34;;;;;;;7.07;3.13;;;;;;;31.43;5.23;100462.22;5031477;28;20055;-73
2022/05/06 08:56:02;;;;;;;6.32;3.33;;;;;;;32.00;4.65;100479.25;5025974;28;20052;-71
2022/05/06 08:58:34;;;;;;;6.72;3.00;;;;;;;34.74;3.56;100482.25;4998884;28;20057;-72
2022/05/06 09:01:07;;;;;;;5.78;3.28;;;;;;;36.29;2.87;100494.69;5015524;28;20492;-71
2022/05/06 09:03:33;;;;;;;5.65;2.60;;;;;;;37.30;2.31;100487.81;4997930;28;20060;-71
2022/05/06 09:05:59;;;;;;;5.55;2.80;;;;;;;36.76;2.41;100486.00;4998482;28;20450;-71
2022/05/06 09:08:42;;;;;;;6.07;3.03;;;;;;;34.21;3.36;100461.38;5015206;28;20544;-72
2022/05/06 09:11:08;;;;;;;4.25;2.60;;;;;;;31.88;4.52;100475.97;4996822;28;20067;-73
2022/05/06 09:13:39;;;;;;;5.50;2.55;;;;;;;31.22;5.21;100485.25;4981546;28;20040;-72
2022/05/06 09:19:20;;;;;;;5.78;2.88;;;;;;;29.68;5.75;100466.97;5023757;28;19927;-71
2022/05/06 09:22:04;;;;;;;6.85;3.22;;;;;;;31.57;5.11;100446.06;5028861;28;20041;-72
2022/05/06 09:24:35;;;;;;;4.75;3.30;;;;;;;32.91;4.38;100478.94;5013436;28;20411;-73
2022/05/06 09:27:02;;;;;;;3.83;2.88;;;;;;;34.27;3.81;100470.41;4995207;28;20041;-73
2022/05/06 09:29:34;;;;;;;5.30;2.40;;;;;;;33.59;4.18;100484.28;5030278;28;20119;-74
2022/05/06 09:32:22;;;;;;;3.17;2.17;;;;;;;31.79;4.84;100455.63;5030274;28;20044;-75
2022/05/06 09:34:53;;;;;;;5.85;2.70;;;;;;;28.63;6.19;100483.91;5020508;28;20488;-73
2022/05/06 09:37:38;;;;;;;3.47;2.00;;;;;;;26.95;7.06;100473.56;4982024;28;20122;-73
2022/05/06 09:40:18;;;;;;;6.68;2.78;;;;;;;28.87;6.33;100462.59;5025916;28;20087;-74
2022/05/06 09:42:53;;;;;;;8.73;2.70;;;;;;;29.90;5.90;100475.88;5013712;28;20033;-72
2022/05/06 09:45:32;;;;;;;4.32;2.20;;;;;;;31.50;5.13;100489.44;5030038;28;20047;-73
2022/05/06 09:48:02;;;;;;;4.70;2.28;;;;;;;30.03;5.54;100472.69;5014043;28;20048;-71
2022/05/06 09:50:42;;;;;;;4.80;2.28;;;;;;;28.21;6.15;100463.69;5039158;28;20487;-71
2022/05/06 09:53:10;;;;;;;10.25;4.43;;;;;;;27.56;6.77;100459.94;5010571;28;20041;-73
2022/05/06 09:55:41;;;;;;;5.97;3.45;;;;;;;27.32;7.19;100481.13;5029960;28;20116;-73
2022/05/06 09:58:08;;;;;;;5.47;2.67;;;;;;;28.73;6.18;100473.13;4981460;28;20502;-72
2022/05/06 10:00:35;;;;;;;2.67;2.42;;;;;;;30.87;5.34;100449.53;5014270;28;20040;-73
2022/05/06 10:03:03;;;;;;;4.82;2.60;;;;;;;31.96;4.72;100455.34;5011413;28;20535;-74
2022/05/06 10:05:36;;;;;;;2.17;1.98;;;;;;;30.52;5.50;100450.19;5014367;28;20524;-74
2022/05/06 10:08:12;;;;;;;3.83;1.95;;;;;;;28.27;6.60;100453.63;4984349;28;20048;-73
2022/05/06 10:10:41;;;;;;;4.95;2.15;;;;;;;26.93;7.38;100451.16;5031126;28;20041;-72
2022/05/06 10:13:28;;;;;;;5.95;2.13;;;;;;;27.43;7.21;100450.16;4997170;28;20045;-72
2022/05/06 10:15:54;;;;;;;3.25;2.13;;;;;;;28.57;6.92;100445.88;4998261;28;20140;-72
2022/05/06 10:18:32;;;;;;;2.53;1.70;;;;;;;28.23;7.13;100444.31;4998360;28;20060;-72
2022/05/06 10:21:00;;;;;;;3.38;1.80;;;;;;;28.32;7.07;100445.50;5014129;28;20041;-73
2022/05/06 10:23:50;;;;;;;5.90;2.03;;;;;;;28.83;6.73;100450.53;5013720;28;20449;-73
2022/05/06 10:26:35;;;;;;;;;;;;;;;30.36;6.23;100447.66;5015466;28;20071;-75
2022/05/06 10:35:02;;;;;;;4.43;2.20;;;;;;;34.09;4.23;100444.41;5034818;28;20040;-72
2022/05/06 10:37:41;;;;;;;4.25;2.20;;;;;;;34.78;3.83;100433.59;5034479;28;20057;-74
2022/05/06 10:40:25;;;;;;;2.90;2.22;;;;;;;35.10;3.51;100430.94;5001603;28;20423;-73
2022/05/06 10:42:52;;;;;;;7.07;2.40;;;;;;;34.99;3.68;100426.69;5017575;28;20044;-74
2022/05/06 10:45:33;;;;;;;4.53;2.08;;;;;;;33.93;3.93;100443.75;5034326;28;20424;-73
2022/05/06 10:47:59;;;;;;;5.22;1.98;;;;;;;33.23;4.68;100438.00;5034121;28;20045;-72
2022/05/06 10:50:29;;;;;;;5.25;1.90;;;;;;;31.39;4.93;100446.59;5017939;28;20110;-72
2022/05/06 10:53:01;;;;;;;5.43;2.35;;;;;;;30.26;5.56;100428.44;5034814;28;20043;-73
2022/05/06 10:55:27;;;;;;;2.83;2.00;;;;;;;28.67;6.19;100422.19;4985374;28;20451;-76
2022/05/06 10:57:57;;;;;;;5.30;2.13;;;;;;;26.99;7.04;100420.19;5001400;28;20111;-73
2022/05/06 11:00:27;;;;;;;3.30;2.13;;;;;;;26.06;7.81;100428.66;5017884;28;20062;-73
2022/05/06 11:02:53;;;;;;;5.65;2.35;;;;;;;25.79;7.97;100403.00;5001592;28;20041;-72
2022/05/06 11:05:20;;;;;;;4.80;2.95;;;;;;;25.82;8.10;100410.69;4984083;28;20052;-72
2022/05/06 11:07:48;;;;;;;6.82;2.10;;;;;;;25.30;8.34;100399.88;5033938;28;20063;-72
2022/05/06 11:10:19;;;;;;;4.57;2.13;;;;;;;25.56;8.70;100407.59;5001463;28;20049;-72
2022/05/06 11:12:47;;;;;;;3.17;2.40;;;;;;;25.66;8.44;100400.50;5016460;28;20088;-72
2022/05/06 11:15:17;;;;;;;5.05;2.88;;;;;;;24.92;9.36;100400.28;5051139;28;20048;-73
2022/05/06 11:17:44;;;;;;;5.57;2.67;;;;;;;24.74;9.06;100420.19;4984417;28;20448;-72
2022/05/06 11:20:21;;;;;;;4.75;2.53;;;;;;;24.40;9.24;100341.28;5016815;28;20072;-72
2022/05/06 11:22:56;;;;;;;4.20;2.65;;;;;;;24.37;8.86;100383.25;5048697;28;20040;-72
2022/05/06 11:25:23;;;;;;;4.82;2.65;;;;;;;24.62;9.01;100397.56;4998768;28;20037;-72
2022/05/06 11:27:51;;;;;;;5.10;2.50;;;;;;;24.84;9.40;100387.88;4997999;28;20041;-72
2022/05/06 11:30:18;;;;;;;4.55;2.45;;;;;;;25.39;9.01;100379.44;4998379;28;20041;-72
2022/05/06 11:32:52;;;;;;;4.80;2.80;;;;;;;24.50;9.59;100374.13;5014237;28;20041;-72
2022/05/06 11:35:21;;;;;;;5.10;2.50;;;;;;;23.63;9.77;100401.66;5032466;28;20603;-71
2022/05/06 11:37:48;;;;;;;7.65;3.03;;;;;;;22.91;10.21;100401.41;5051498;28;20041;-72
2022/05/06 11:42:57;;;;;;;4.68;2.60;;;;;;;22.39;10.34;100386.28;5032808;28;20068;-72
2022/05/06 11:48:11;;;;;;;7.47;3.30;;;;;;;22.58;10.81;100382.66;5002891;28;20051;-71
2022/05/06 11:50:39;;;;;;;5.55;2.53;;;;;;;22.66;10.99;100374.28;5033681;28;20075;-71
2022/05/06 11:53:13;;;;;;;7.03;2.60;;;;;;;22.85;10.98;100386.84;5016451;28;20052;-71
2022/05/06 11:55:42;;;;;;;5.68;3.00;;;;;;;22.58;11.15;100379.13;5032270;28;20048;-71
2022/05/06 11:58:12;;;;;;;5.95;2.72;;;;;;;22.23;11.33;100378.66;5017498;28;20044;-73
2022/05/06 12:00:38;;;;;;;6.13;2.70;;;;;;;21.50;11.52;100376.34;5034007;28;20079;-71
2022/05/06 12:03:06;;;;;;;3.60;2.70;;;;;;;22.07;11.83;100389.13;4984166;28;20353;-70
2022/05/06 12:05:36;;;;;;;4.90;2.95;;;;;;;21.81;11.36;100375.69;5016065;28;20785;-71
2022/05/06 12:08:02;;;;;;;6.18;2.92;;;;;;;22.25;11.26;100367.63;4983550;28;20053;-70
2022/05/06 12:10:32;;;;;;;5.03;2.95;;;;;;;22.46;10.88;100356.47;4984109;28;20083;-71
2022/05/06 12:13:06;;;;;;;7.63;2.60;;;;;;;22.18;11.21;100339.75;5015487;28;20047;-72
2022/05/06 12:15:40;;;;;;;6.50;2.88;;;;;;;22.36;11.25;100356.94;5016049;28;20288;-71
2022/05/06 12:18:18;;;;;;;6.93;2.72;;;;;;;22.20;11.57;100372.84;5000291;28;20079;-71
2022/05/06 12:20:46;;;;;;;3.88;2.42;;;;;;;22.05;11.33;100366.88;5016097;28;20102;-71
2022/05/06 12:23:13;;;;;;;10.23;2.50;;;;;;;21.55;11.69;100338.69;5015951;28;20041;-70
2022/05/06 12:25:40;;;;;;;4.30;2.30;;;;;;;21.61;12.21;100330.59;5015706;28;20511;-70